Time;durP1;ratioP1;P1;durP2;ratioP2;P2;SDS_P1;SDS_P2;PMS_P1;PMS_P2;Temp;Humidity;BMP_temperature;BMP_pressure;BME280_temperature;BME280_humidity;BME280_pressure;Samples;Min_cycle;Max_cycle;Signal;HPM_P1;HPM_P2
2019/05/14 00:00:51;;;;;;;4;3.05;;;;;;;4.4;69.07617;96484.55;;;;
2019/05/14 00:01:52;;;;;;;4;3.05;;;;;;;4.4;69.07617;96484.55;;;;
2019/05/14 00:02:53;;;;;;;4;3.05;;;;;;;4.4;69.07617;96484.55;;;;
2019/05/14 00:03:54;;;;;;;4;3.05;;;;;;;4.4;69.07617;96484.55;;;;
2019/05/14 00:04:55;;;;;;;4;3.05;;;;;;;4.4;69.07617;96484.55;;;;
2019/05/14 00:05:57;;;;;;;5.850001;2.900001;;;;;;;4.13;69.74121;96468.78;;;;
2019/05/14 00:06:58;;;;;;;5.850001;2.900001;;;;;;;4.13;69.74121;96468.78;;;;
2019/05/14 00:07:59;;;;;;;5.850001;2.900001;;;;;;;4.13;69.74121;96468.78;;;;
2019/05/14 00:09:00;;;;;;;5.850001;2.900001;;;;;;;4.13;69.74121;96468.78;;;;
2019/05/14 00:10:01;;;;;;;5.850001;2.900001;;;;;;;4.13;69.74121;96468.78;;;;
2019/05/14 00:11:03;;;;;;;5.850001;2.900001;;;;;;;4.13;69.74121;96468.78;;;;
2019/05/14 00:12:04;;;;;;;5.850001;2.900001;;;;;;;4.13;69.74121;96468.78;;;;
2019/05/14 00:13:05;;;;;;;5.850001;2.900001;;;;;;;4.13;69.74121;96468.78;;;;
2019/05/14 00:14:06;;;;;;;5.850001;2.900001;;;;;;;4.13;69.74121;96468.78;;;;
2019/05/14 00:15:07;;;;;;;5.850001;2.900001;;;;;;;4.13;69.74121;96468.78;;;;
2019/05/14 00:16:08;;;;;;;5.85;3.4;;;;;;;3.8;70.31934;96472.92;;;;
2019/05/14 00:17:09;;;;;;;5.85;3.4;;;;;;;3.8;70.31934;96472.92;;;;
2019/05/14 00:18:10;;;;;;;5.85;3.4;;;;;;;3.8;70.31934;96472.92;;;;
2019/05/14 00:19:11;;;;;;;5.85;3.4;;;;;;;3.8;70.31934;96472.92;;;;
2019/05/14 00:20:12;;;;;;;5.85;3.4;;;;;;;3.8;70.31934;96472.92;;;;
2019/05/14 00:21:13;;;;;;;5.85;3.4;;;;;;;3.8;70.31934;96472.92;;;;
2019/05/14 00:22:14;;;;;;;5.85;3.4;;;;;;;3.8;70.31934;96472.92;;;;
2019/05/14 00:23:15;;;;;;;5.85;3.4;;;;;;;3.8;70.31934;96472.92;;;;
2019/05/14 00:24:17;;;;;;;5.85;3.4;;;;;;;3.8;70.31934;96472.92;;;;
2019/05/14 00:25:18;;;;;;;5.85;3.4;;;;;;;3.8;70.31934;96472.92;;;;
2019/05/14 00:26:19;;;;;;;5.85;3.4;;;;;;;3.8;70.31934;96472.92;;;;
2019/05/14 00:27:20;;;;;;;7.1;3.35;;;;;;;3.57;70.9668;96456.29;;;;
2019/05/14 00:28:21;;;;;;;7.1;3.35;;;;;;;3.57;70.9668;96456.29;;;;
2019/05/14 00:29:22;;;;;;;7.1;3.35;;;;;;;3.57;70.9668;96456.29;;;;
2019/05/14 00:30:23;;;;;;;7.1;3.35;;;;;;;3.57;70.9668;96456.29;;;;
2019/05/14 00:31:24;;;;;;;7.1;3.35;;;;;;;3.57;70.9668;96456.29;;;;
2019/05/14 00:32:25;;;;;;;7.1;3.35;;;;;;;3.57;70.9668;96456.29;;;;
2019/05/14 00:33:26;;;;;;;7.1;3.35;;;;;;;3.57;70.9668;96456.29;;;;
2019/05/14 00:34:27;;;;;;;7.1;3.35;;;;;;;3.57;70.9668;96456.29;;;;
2019/05/14 00:35:28;;;;;;;7.1;3.35;;;;;;;3.57;70.9668;96456.29;;;;
2019/05/14 00:36:29;;;;;;;7.1;3.35;;;;;;;3.57;70.9668;96456.29;;;;
2019/05/14 00:37:30;;;;;;;5.400001;3.5;;;;;;;3.28;71.5;96445.14;;;;
2019/05/14 00:38:31;;;;;;;5.400001;3.5;;;;;;;3.28;71.5;96445.14;;;;
2019/05/14 00:39:32;;;;;;;5.400001;3.5;;;;;;;3.28;71.5;96445.14;;;;
2019/05/14 00:40:33;;;;;;;5.400001;3.5;;;;;;;3.28;71.5;96445.14;;;;
2019/05/14 00:41:35;;;;;;;5.400001;3.5;;;;;;;3.28;71.5;96445.14;;;;
2019/05/14 00:42:36;;;;;;;5.400001;3.5;;;;;;;3.28;71.5;96445.14;;;;
2019/05/14 00:43:37;;;;;;;5.400001;3.5;;;;;;;3.28;71.5;96445.14;;;;
2019/05/14 00:44:38;;;;;;;5.400001;3.5;;;;;;;3.28;71.5;96445.14;;;;
2019/05/14 00:45:39;;;;;;;5.400001;3.5;;;;;;;3.28;71.5;96445.14;;;;
2019/05/14 00:46:40;;;;;;;5.400001;3.5;;;;;;;3.28;71.5;96445.14;;;;
2019/05/14 00:47:41;;;;;;;5.400001;3.5;;;;;;;3.28;71.5;96445.14;;;;
2019/05/14 00:48:42;;;;;;;5.400001;3.5;;;;;;;3.28;71.5;96445.14;;;;
2019/05/14 00:49:43;;;;;;;5.400001;3.5;;;;;;;3.28;71.5;96445.14;;;;
2019/05/14 00:50:44;;;;;;;5.400001;3.5;;;;;;;3.28;71.5;96445.14;;;;
2019/05/14 00:51:45;;;;;;;5.400001;3.5;;;;;;;3.28;71.5;96445.14;;;;
2019/05/14 00:52:46;;;;;;;5.400001;3.5;;;;;;;3.28;71.5;96445.14;;;;
2019/05/14 00:53:48;;;;;;;5.400001;3.5;;;;;;;3.28;71.5;96445.14;;;;
2019/05/14 00:54:49;;;;;;;5.400001;3.5;;;;;;;3.28;71.5;96445.14;;;;
2019/05/14 00:55:50;;;;;;;5.400001;3.5;;;;;;;3.28;71.5;96445.14;;;;
2019/05/14 00:56:51;;;;;;;5.400001;3.5;;;;;;;3.28;71.5;96445.14;;;;
2019/05/14 00:57:52;;;;;;;5.400001;3.5;;;;;;;3.28;71.5;96445.14;;;;
2019/05/14 00:58:53;;;;;;;6.05;3.6;;;;;;;2.89;72.65332;96432.92;;;;
2019/05/14 00:59:54;;;;;;;6.05;3.6;;;;;;;2.89;72.65332;96432.92;;;;
2019/05/14 01:00:55;;;;;;;6.05;3.6;;;;;;;2.89;72.65332;96432.92;;;;
2019/05/14 01:01:56;;;;;;;6.05;3.6;;;;;;;2.89;72.65332;96432.92;;;;
2019/05/14 01:02:57;;;;;;;6.05;3.6;;;;;;;2.89;72.65332;96432.92;;;;
2019/05/14 01:03:58;;;;;;;6.05;3.6;;;;;;;2.89;72.65332;96432.92;;;;
2019/05/14 01:05:00;;;;;;;6.05;3.6;;;;;;;2.89;72.65332;96432.92;;;;
2019/05/14 01:06:01;;;;;;;6.05;3.6;;;;;;;2.89;72.65332;96432.92;;;;
2019/05/14 01:07:02;;;;;;;6.05;3.6;;;;;;;2.89;72.65332;96432.92;;;;
2019/05/14 01:08:03;;;;;;;6.05;3.6;;;;;;;2.89;72.65332;96432.92;;;;
2019/05/14 01:09:04;;;;;;;5.05;3.55;;;;;;;2.83;73.2959;96441.06;;;;
2019/05/14 01:10:05;;;;;;;5.05;3.55;;;;;;;2.83;73.2959;96441.06;;;;
2019/05/14 01:11:07;;;;;;;5.05;3.55;;;;;;;2.83;73.2959;96441.06;;;;
2019/05/14 01:12:08;;;;;;;5.05;3.55;;;;;;;2.83;73.2959;96441.06;;;;
2019/05/14 01:13:09;;;;;;;5.05;3.55;;;;;;;2.83;73.2959;96441.06;;;;
2019/05/14 01:14:10;;;;;;;5.05;3.55;;;;;;;2.83;73.2959;96441.06;;;;
2019/05/14 01:15:11;;;;;;;5.05;3.55;;;;;;;2.83;73.2959;96441.06;;;;
2019/05/14 01:16:12;;;;;;;5.05;3.55;;;;;;;2.83;73.2959;96441.06;;;;
2019/05/14 01:17:13;;;;;;;5.05;3.55;;;;;;;2.83;73.2959;96441.06;;;;
2019/05/14 01:18:15;;;;;;;5.05;3.55;;;;;;;2.83;73.2959;96441.06;;;;
2019/05/14 01:19:16;;;;;;;5.05;3.55;;;;;;;2.83;73.2959;96441.06;;;;
2019/05/14 01:20:17;;;;;;;4.5;3.85;;;;;;;2.75;73.7334;96436.63;;;;
2019/05/14 01:21:18;;;;;;;4.5;3.85;;;;;;;2.75;73.7334;96436.63;;;;
2019/05/14 01:22:19;;;;;;;4.5;3.85;;;;;;;2.75;73.7334;96436.63;;;;
2019/05/14 01:23:20;;;;;;;4.5;3.85;;;;;;;2.75;73.7334;96436.63;;;;
2019/05/14 01:24:21;;;;;;;4.5;3.85;;;;;;;2.75;73.7334;96436.63;;;;
2019/05/14 01:25:22;;;;;;;4.5;3.85;;;;;;;2.75;73.7334;96436.63;;;;
2019/05/14 01:26:24;;;;;;;4.5;3.85;;;;;;;2.75;73.7334;96436.63;;;;
2019/05/14 01:27:25;;;;;;;4.5;3.85;;;;;;;2.75;73.7334;96436.63;;;;
2019/05/14 01:28:26;;;;;;;4.5;3.85;;;;;;;2.75;73.7334;96436.63;;;;
2019/05/14 01:29:27;;;;;;;4.5;3.85;;;;;;;2.75;73.7334;96436.63;;;;
2019/05/14 01:30:28;;;;;;;4.5;3.85;;;;;;;2.75;73.7334;96436.63;;;;
2019/05/14 01:31:29;;;;;;;4.5;3.85;;;;;;;2.75;73.7334;96436.63;;;;
2019/05/14 01:32:30;;;;;;;4.5;3.85;;;;;;;2.75;73.7334;96436.63;;;;
2019/05/14 01:33:31;;;;;;;4.5;3.85;;;;;;;2.75;73.7334;96436.63;;;;
2019/05/14 01:34:33;;;;;;;4.5;3.85;;;;;;;2.75;73.7334;96436.63;;;;
2019/05/14 01:35:34;;;;;;;4.5;3.85;;;;;;;2.75;73.7334;96436.63;;;;
2019/05/14 01:36:35;;;;;;;4.5;3.85;;;;;;;2.75;73.7334;96436.63;;;;
2019/05/14 01:37:36;;;;;;;4.5;3.85;;;;;;;2.75;73.7334;96436.63;;;;
2019/05/14 01:38:37;;;;;;;4.5;3.85;;;;;;;2.75;73.7334;96436.63;;;;
2019/05/14 01:39:38;;;;;;;4.5;3.85;;;;;;;2.75;73.7334;96436.63;;;;
2019/05/14 01:40:39;;;;;;;4.5;3.85;;;;;;;2.75;73.7334;96436.63;;;;
2019/05/14 01:41:40;;;;;;;6.55;4.05;;;;;;;3;74.75488;96416.11;;;;
2019/05/14 01:42:42;;;;;;;6.55;4.05;;;;;;;3;74.75488;96416.11;;;;
2019/05/14 01:43:43;;;;;;;6.55;4.05;;;;;;;3;74.75488;96416.11;;;;
2019/05/14 01:44:44;;;;;;;6.55;4.05;;;;;;;3;74.75488;96416.11;;;;
2019/05/14 01:45:45;;;;;;;6.55;4.05;;;;;;;3;74.75488;96416.11;;;;
2019/05/14 01:46:46;;;;;;;6.55;4.05;;;;;;;3;74.75488;96416.11;;;;
2019/05/14 01:47:47;;;;;;;6.55;4.05;;;;;;;3;74.75488;96416.11;;;;
2019/05/14 01:48:48;;;;;;;6.55;4.05;;;;;;;3;74.75488;96416.11;;;;
2019/05/14 01:49:50;;;;;;;6.55;4.05;;;;;;;3;74.75488;96416.11;;;;
2019/05/14 01:50:51;;;;;;;6.55;4.05;;;;;;;3;74.75488;96416.11;;;;
2019/05/14 01:51:52;;;;;;;5.75;4.1;;;;;;;3.15;74.99121;96413.26;;;;
2019/05/14 01:52:53;;;;;;;5.75;4.1;;;;;;;3.15;74.99121;96413.26;;;;
2019/05/14 01:53:55;;;;;;;5.75;4.1;;;;;;;3.15;74.99121;96413.26;;;;
2019/05/14 01:54:56;;;;;;;5.75;4.1;;;;;;;3.15;74.99121;96413.26;;;;
2019/05/14 01:55:57;;;;;;;5.75;4.1;;;;;;;3.15;74.99121;96413.26;;;;
2019/05/14 01:56:58;;;;;;;5.75;4.1;;;;;;;3.15;74.99121;96413.26;;;;
2019/05/14 01:58:00;;;;;;;5.75;4.1;;;;;;;3.15;74.99121;96413.26;;;;
2019/05/14 01:59:01;;;;;;;5.75;4.1;;;;;;;3.15;74.99121;96413.26;;;;
2019/05/14 02:00:02;;;;;;;5.75;4.1;;;;;;;3.15;74.99121;96413.26;;;;
2019/05/14 02:01:04;;;;;;;5.75;4.1;;;;;;;3.15;74.99121;96413.26;;;;
2019/05/14 02:02:05;;;;;;;5.75;4.1;;;;;;;3.15;74.99121;96413.26;;;;
2019/05/14 02:03:06;;;;;;;5.65;3.75;;;;;;;3.14;75.25098;96398.66;;;;
2019/05/14 02:04:08;;;;;;;5.65;3.75;;;;;;;3.14;75.25098;96398.66;;;;
2019/05/14 02:05:09;;;;;;;5.65;3.75;;;;;;;3.14;75.25098;96398.66;;;;
2019/05/14 02:06:10;;;;;;;5.65;3.75;;;;;;;3.14;75.25098;96398.66;;;;
2019/05/14 02:07:11;;;;;;;5.65;3.75;;;;;;;3.14;75.25098;96398.66;;;;
2019/05/14 02:08:13;;;;;;;5.65;3.75;;;;;;;3.14;75.25098;96398.66;;;;
2019/05/14 02:09:14;;;;;;;5.65;3.75;;;;;;;3.14;75.25098;96398.66;;;;
2019/05/14 02:10:15;;;;;;;5.65;3.75;;;;;;;3.14;75.25098;96398.66;;;;
2019/05/14 02:11:16;;;;;;;5.65;3.75;;;;;;;3.14;75.25098;96398.66;;;;
2019/05/14 02:12:17;;;;;;;5.65;3.75;;;;;;;3.14;75.25098;96398.66;;;;
2019/05/14 02:13:18;;;;;;;5.1;4.3;;;;;;;3.16;75.57129;96379.74;;;;
2019/05/14 02:14:19;;;;;;;5.1;4.3;;;;;;;3.16;75.57129;96379.74;;;;
2019/05/14 02:15:21;;;;;;;5.1;4.3;;;;;;;3.16;75.57129;96379.74;;;;
2019/05/14 02:16:22;;;;;;;5.1;4.3;;;;;;;3.16;75.57129;96379.74;;;;
2019/05/14 02:17:23;;;;;;;5.1;4.3;;;;;;;3.16;75.57129;96379.74;;;;
2019/05/14 02:18:24;;;;;;;5.1;4.3;;;;;;;3.16;75.57129;96379.74;;;;
2019/05/14 02:19:25;;;;;;;5.1;4.3;;;;;;;3.16;75.57129;96379.74;;;;
2019/05/14 02:20:27;;;;;;;5.1;4.3;;;;;;;3.16;75.57129;96379.74;;;;
2019/05/14 02:21:28;;;;;;;5.1;4.3;;;;;;;3.16;75.57129;96379.74;;;;
2019/05/14 02:22:29;;;;;;;5.1;4.3;;;;;;;3.16;75.57129;96379.74;;;;
2019/05/14 02:23:30;;;;;;;5.1;4.25;;;;;;;3.12;75.93066;96382.89;;;;
2019/05/14 02:24:31;;;;;;;5.1;4.25;;;;;;;3.12;75.93066;96382.89;;;;
2019/05/14 02:25:32;;;;;;;5.1;4.25;;;;;;;3.12;75.93066;96382.89;;;;
2019/05/14 02:26:33;;;;;;;5.1;4.25;;;;;;;3.12;75.93066;96382.89;;;;
2019/05/14 02:27:34;;;;;;;5.1;4.25;;;;;;;3.12;75.93066;96382.89;;;;
2019/05/14 02:28:35;;;;;;;5.1;4.25;;;;;;;3.12;75.93066;96382.89;;;;
2019/05/14 02:29:37;;;;;;;5.1;4.25;;;;;;;3.12;75.93066;96382.89;;;;
2019/05/14 02:30:38;;;;;;;5.1;4.25;;;;;;;3.12;75.93066;96382.89;;;;
2019/05/14 02:31:39;;;;;;;5.1;4.25;;;;;;;3.12;75.93066;96382.89;;;;
2019/05/14 02:32:40;;;;;;;5.1;4.25;;;;;;;3.12;75.93066;96382.89;;;;
2019/05/14 02:33:41;;;;;;;5.1;4.25;;;;;;;3.12;75.93066;96382.89;;;;
2019/05/14 02:34:42;;;;;;;5.8;4.15;;;;;;;3.22;76.35938;96372.5;;;;
2019/05/14 02:35:43;;;;;;;5.8;4.15;;;;;;;3.22;76.35938;96372.5;;;;
2019/05/14 02:36:45;;;;;;;5.8;4.15;;;;;;;3.22;76.35938;96372.5;;;;
2019/05/14 02:37:46;;;;;;;5.8;4.15;;;;;;;3.22;76.35938;96372.5;;;;
2019/05/14 02:38:47;;;;;;;5.8;4.15;;;;;;;3.22;76.35938;96372.5;;;;
2019/05/14 02:39:48;;;;;;;5.8;4.15;;;;;;;3.22;76.35938;96372.5;;;;
2019/05/14 02:40:49;;;;;;;5.8;4.15;;;;;;;3.22;76.35938;96372.5;;;;
2019/05/14 02:41:50;;;;;;;5.8;4.15;;;;;;;3.22;76.35938;96372.5;;;;
2019/05/14 02:42:51;;;;;;;5.8;4.15;;;;;;;3.22;76.35938;96372.5;;;;
2019/05/14 02:43:53;;;;;;;5.8;4.15;;;;;;;3.22;76.35938;96372.5;;;;
2019/05/14 02:44:54;;;;;;;5.5;4;;;;;;;3.31;76.5127;96362.98;;;;
2019/05/14 02:45:55;;;;;;;5.5;4;;;;;;;3.31;76.5127;96362.98;;;;
2019/05/14 02:46:56;;;;;;;5.5;4;;;;;;;3.31;76.5127;96362.98;;;;
2019/05/14 02:47:57;;;;;;;5.5;4;;;;;;;3.31;76.5127;96362.98;;;;
2019/05/14 02:48:58;;;;;;;5.5;4;;;;;;;3.31;76.5127;96362.98;;;;
2019/05/14 02:49:59;;;;;;;5.5;4;;;;;;;3.31;76.5127;96362.98;;;;
2019/05/14 02:51:00;;;;;;;5.5;4;;;;;;;3.31;76.5127;96362.98;;;;
2019/05/14 02:52:01;;;;;;;5.5;4;;;;;;;3.31;76.5127;96362.98;;;;
2019/05/14 02:53:02;;;;;;;5.5;4;;;;;;;3.31;76.5127;96362.98;;;;
2019/05/14 02:54:03;;;;;;;5.5;4;;;;;;;3.31;76.5127;96362.98;;;;
2019/05/14 02:55:04;;;;;;;5.5;4;;;;;;;3.31;76.5127;96362.98;;;;
2019/05/14 02:56:05;;;;;;;6.249999;3.8;;;;;;;3.37;76.63867;96352.14;;;;
2019/05/14 02:57:07;;;;;;;6.249999;3.8;;;;;;;3.37;76.63867;96352.14;;;;
2019/05/14 02:58:08;;;;;;;6.249999;3.8;;;;;;;3.37;76.63867;96352.14;;;;
2019/05/14 02:59:09;;;;;;;6.249999;3.8;;;;;;;3.37;76.63867;96352.14;;;;
2019/05/14 03:00:10;;;;;;;6.249999;3.8;;;;;;;3.37;76.63867;96352.14;;;;
2019/05/14 03:01:11;;;;;;;6.249999;3.8;;;;;;;3.37;76.63867;96352.14;;;;
2019/05/14 03:02:12;;;;;;;6.249999;3.8;;;;;;;3.37;76.63867;96352.14;;;;
2019/05/14 03:03:13;;;;;;;6.249999;3.8;;;;;;;3.37;76.63867;96352.14;;;;
2019/05/14 03:04:14;;;;;;;6.249999;3.8;;;;;;;3.37;76.63867;96352.14;;;;
2019/05/14 03:05:15;;;;;;;6.249999;3.8;;;;;;;3.37;76.63867;96352.14;;;;
2019/05/14 03:06:16;;;;;;;4.8;4.3;;;;;;;3.11;76.91895;96349.22;;;;
2019/05/14 03:07:17;;;;;;;4.8;4.3;;;;;;;3.11;76.91895;96349.22;;;;
2019/05/14 03:08:18;;;;;;;4.8;4.3;;;;;;;3.11;76.91895;96349.22;;;;
2019/05/14 03:09:19;;;;;;;4.8;4.3;;;;;;;3.11;76.91895;96349.22;;;;
2019/05/14 03:10:20;;;;;;;4.8;4.3;;;;;;;3.11;76.91895;96349.22;;;;
2019/05/14 03:11:21;;;;;;;4.8;4.3;;;;;;;3.11;76.91895;96349.22;;;;
2019/05/14 03:12:22;;;;;;;4.8;4.3;;;;;;;3.11;76.91895;96349.22;;;;
2019/05/14 03:13:23;;;;;;;4.8;4.3;;;;;;;3.11;76.91895;96349.22;;;;
2019/05/14 03:14:25;;;;;;;4.8;4.3;;;;;;;3.11;76.91895;96349.22;;;;
2019/05/14 03:15:26;;;;;;;4.8;4.3;;;;;;;3.11;76.91895;96349.22;;;;
2019/05/14 03:16:27;;;;;;;5.65;4.35;;;;;;;2.94;77.4873;96340.34;;;;
2019/05/14 03:17:28;;;;;;;5.65;4.35;;;;;;;2.94;77.4873;96340.34;;;;
2019/05/14 03:18:29;;;;;;;5.65;4.35;;;;;;;2.94;77.4873;96340.34;;;;
2019/05/14 03:19:30;;;;;;;5.65;4.35;;;;;;;2.94;77.4873;96340.34;;;;
2019/05/14 03:20:31;;;;;;;5.65;4.35;;;;;;;2.94;77.4873;96340.34;;;;
2019/05/14 03:21:32;;;;;;;5.65;4.35;;;;;;;2.94;77.4873;96340.34;;;;
2019/05/14 03:22:33;;;;;;;5.65;4.35;;;;;;;2.94;77.4873;96340.34;;;;
2019/05/14 03:23:34;;;;;;;5.65;4.35;;;;;;;2.94;77.4873;96340.34;;;;
2019/05/14 03:24:35;;;;;;;5.65;4.35;;;;;;;2.94;77.4873;96340.34;;;;
2019/05/14 03:25:36;;;;;;;5.65;4.35;;;;;;;2.94;77.4873;96340.34;;;;
2019/05/14 03:26:38;;;;;;;5.65;4.35;;;;;;;2.94;77.4873;96340.34;;;;
2019/05/14 03:27:39;;;;;;;7.050001;4.65;;;;;;;2.74;77.80859;96332.28;;;;
2019/05/14 03:28:40;;;;;;;7.050001;4.65;;;;;;;2.74;77.80859;96332.28;;;;
2019/05/14 03:29:41;;;;;;;7.050001;4.65;;;;;;;2.74;77.80859;96332.28;;;;
2019/05/14 03:30:42;;;;;;;7.050001;4.65;;;;;;;2.74;77.80859;96332.28;;;;
2019/05/14 03:31:43;;;;;;;7.050001;4.65;;;;;;;2.74;77.80859;96332.28;;;;
2019/05/14 03:32:44;;;;;;;7.050001;4.65;;;;;;;2.74;77.80859;96332.28;;;;
2019/05/14 03:33:45;;;;;;;7.050001;4.65;;;;;;;2.74;77.80859;96332.28;;;;
2019/05/14 03:34:46;;;;;;;7.050001;4.65;;;;;;;2.74;77.80859;96332.28;;;;
2019/05/14 03:35:47;;;;;;;7.050001;4.65;;;;;;;2.74;77.80859;96332.28;;;;
2019/05/14 03:36:48;;;;;;;7.050001;4.65;;;;;;;2.74;77.80859;96332.28;;;;
2019/05/14 03:37:49;;;;;;;6.750001;4.400001;;;;;;;2.61;78.21484;96343.5;;;;
2019/05/14 03:38:50;;;;;;;6.750001;4.400001;;;;;;;2.61;78.21484;96343.5;;;;
2019/05/14 03:39:51;;;;;;;6.750001;4.400001;;;;;;;2.61;78.21484;96343.5;;;;
2019/05/14 03:40:53;;;;;;;6.750001;4.400001;;;;;;;2.61;78.21484;96343.5;;;;
2019/05/14 03:41:54;;;;;;;6.750001;4.400001;;;;;;;2.61;78.21484;96343.5;;;;
2019/05/14 03:42:55;;;;;;;6.750001;4.400001;;;;;;;2.61;78.21484;96343.5;;;;
2019/05/14 03:43:56;;;;;;;6.750001;4.400001;;;;;;;2.61;78.21484;96343.5;;;;
2019/05/14 03:44:57;;;;;;;6.750001;4.400001;;;;;;;2.61;78.21484;96343.5;;;;
2019/05/14 03:45:58;;;;;;;6.750001;4.400001;;;;;;;2.61;78.21484;96343.5;;;;
2019/05/14 03:46:59;;;;;;;6.750001;4.400001;;;;;;;2.61;78.21484;96343.5;;;;
2019/05/14 03:48:00;;;;;;;6.750001;4.400001;;;;;;;2.61;78.21484;96343.5;;;;
2019/05/14 03:49:02;;;;;;;5.75;4.4;;;;;;;2.45;78.59473;96335.35;;;;
2019/05/14 03:50:03;;;;;;;5.75;4.4;;;;;;;2.45;78.59473;96335.35;;;;
2019/05/14 03:51:04;;;;;;;5.75;4.4;;;;;;;2.45;78.59473;96335.35;;;;
2019/05/14 03:52:05;;;;;;;5.75;4.4;;;;;;;2.45;78.59473;96335.35;;;;
2019/05/14 03:53:06;;;;;;;5.75;4.4;;;;;;;2.45;78.59473;96335.35;;;;
2019/05/14 03:54:07;;;;;;;5.75;4.4;;;;;;;2.45;78.59473;96335.35;;;;
2019/05/14 03:55:08;;;;;;;5.75;4.4;;;;;;;2.45;78.59473;96335.35;;;;
2019/05/14 03:56:09;;;;;;;5.75;4.4;;;;;;;2.45;78.59473;96335.35;;;;
2019/05/14 03:57:10;;;;;;;5.75;4.4;;;;;;;2.45;78.59473;96335.35;;;;
2019/05/14 03:58:11;;;;;;;5.75;4.4;;;;;;;2.45;78.59473;96335.35;;;;
2019/05/14 03:59:12;;;;;;;7.899999;5;;;;;;;2.55;78.86328;96331.23;;;;
2019/05/14 04:00:13;;;;;;;7.899999;5;;;;;;;2.55;78.86328;96331.23;;;;
2019/05/14 04:01:14;;;;;;;7.899999;5;;;;;;;2.55;78.86328;96331.23;;;;
2019/05/14 04:02:15;;;;;;;7.899999;5;;;;;;;2.55;78.86328;96331.23;;;;
2019/05/14 04:03:17;;;;;;;7.899999;5;;;;;;;2.55;78.86328;96331.23;;;;
2019/05/14 04:04:18;;;;;;;7.899999;5;;;;;;;2.55;78.86328;96331.23;;;;
2019/05/14 04:05:19;;;;;;;7.899999;5;;;;;;;2.55;78.86328;96331.23;;;;
2019/05/14 04:06:20;;;;;;;7.899999;5;;;;;;;2.55;78.86328;96331.23;;;;
2019/05/14 04:07:21;;;;;;;7.899999;5;;;;;;;2.55;78.86328;96331.23;;;;
2019/05/14 04:08:22;;;;;;;7.899999;5;;;;;;;2.55;78.86328;96331.23;;;;
2019/05/14 04:09:23;;;;;;;7.899999;5;;;;;;;2.55;78.86328;96331.23;;;;
2019/05/14 04:10:24;;;;;;;7.899999;5;;;;;;;2.55;78.86328;96331.23;;;;
2019/05/14 04:11:25;;;;;;;7.899999;5;;;;;;;2.55;78.86328;96331.23;;;;
2019/05/14 04:12:27;;;;;;;7.899999;5;;;;;;;2.55;78.86328;96331.23;;;;
2019/05/14 04:13:28;;;;;;;7.899999;5;;;;;;;2.55;78.86328;96331.23;;;;
2019/05/14 04:14:30;;;;;;;7.899999;5;;;;;;;2.55;78.86328;96331.23;;;;
2019/05/14 04:15:31;;;;;;;7.899999;5;;;;;;;2.55;78.86328;96331.23;;;;
2019/05/14 04:16:32;;;;;;;7.899999;5;;;;;;;2.55;78.86328;96331.23;;;;
2019/05/14 04:17:34;;;;;;;7.899999;5;;;;;;;2.55;78.86328;96331.23;;;;
2019/05/14 04:18:36;;;;;;;7.899999;5;;;;;;;2.55;78.86328;96331.23;;;;
2019/05/14 04:19:37;;;;;;;7.899999;5;;;;;;;2.55;78.86328;96331.23;;;;
2019/05/14 04:20:38;;;;;;;5.699999;4.55;;;;;;;2.56;79.05371;96324.89;;;;
2019/05/14 04:21:39;;;;;;;5.699999;4.55;;;;;;;2.56;79.05371;96324.89;;;;
2019/05/14 04:22:40;;;;;;;5.699999;4.55;;;;;;;2.56;79.05371;96324.89;;;;
2019/05/14 04:23:41;;;;;;;5.699999;4.55;;;;;;;2.56;79.05371;96324.89;;;;
2019/05/14 04:24:46;;;;;;;5.699999;4.55;;;;;;;2.56;79.05371;96324.89;;;;
2019/05/14 04:25:47;;;;;;;5.699999;4.55;;;;;;;2.56;79.05371;96324.89;;;;
2019/05/14 04:26:50;;;;;;;5.699999;4.55;;;;;;;2.56;79.05371;96324.89;;;;
2019/05/14 04:27:51;;;;;;;5.699999;4.55;;;;;;;2.56;79.05371;96324.89;;;;
2019/05/14 04:28:52;;;;;;;5.699999;4.55;;;;;;;2.56;79.05371;96324.89;;;;
2019/05/14 04:29:53;;;;;;;5.699999;4.55;;;;;;;2.56;79.05371;96324.89;;;;
2019/05/14 04:30:54;;;;;;;7;4.699999;;;;;;;2.41;79.27734;96324.77;;;;
2019/05/14 04:31:55;;;;;;;7;4.699999;;;;;;;2.41;79.27734;96324.77;;;;
2019/05/14 04:32:57;;;;;;;7;4.699999;;;;;;;2.41;79.27734;96324.77;;;;
2019/05/14 04:33:58;;;;;;;7;4.699999;;;;;;;2.41;79.27734;96324.77;;;;
2019/05/14 04:35:00;;;;;;;7;4.699999;;;;;;;2.41;79.27734;96324.77;;;;
2019/05/14 04:36:01;;;;;;;7;4.699999;;;;;;;2.41;79.27734;96324.77;;;;
2019/05/14 04:37:02;;;;;;;7;4.699999;;;;;;;2.41;79.27734;96324.77;;;;
2019/05/14 04:38:03;;;;;;;7;4.699999;;;;;;;2.41;79.27734;96324.77;;;;
2019/05/14 04:39:04;;;;;;;7;4.699999;;;;;;;2.41;79.27734;96324.77;;;;
2019/05/14 04:40:05;;;;;;;7;4.699999;;;;;;;2.41;79.27734;96324.77;;;;
2019/05/14 04:41:07;;;;;;;7.949999;5.249999;;;;;;;2.39;79.62012;96328.5;;;;
2019/05/14 04:42:08;;;;;;;7.949999;5.249999;;;;;;;2.39;79.62012;96328.5;;;;
2019/05/14 04:43:09;;;;;;;7.949999;5.249999;;;;;;;2.39;79.62012;96328.5;;;;
2019/05/14 04:44:10;;;;;;;7.949999;5.249999;;;;;;;2.39;79.62012;96328.5;;;;
2019/05/14 04:45:11;;;;;;;7.949999;5.249999;;;;;;;2.39;79.62012;96328.5;;;;
2019/05/14 04:46:12;;;;;;;7.949999;5.249999;;;;;;;2.39;79.62012;96328.5;;;;
2019/05/14 04:47:13;;;;;;;7.949999;5.249999;;;;;;;2.39;79.62012;96328.5;;;;
2019/05/14 04:48:14;;;;;;;7.949999;5.249999;;;;;;;2.39;79.62012;96328.5;;;;
2019/05/14 04:49:15;;;;;;;7.949999;5.249999;;;;;;;2.39;79.62012;96328.5;;;;
2019/05/14 04:50:16;;;;;;;7.949999;5.249999;;;;;;;2.39;79.62012;96328.5;;;;
2019/05/14 04:51:18;;;;;;;7.949999;5.249999;;;;;;;2.39;79.62012;96328.5;;;;
2019/05/14 04:52:19;;;;;;;6.650001;5.1;;;;;;;2.41;79.86426;96334.09;;;;
2019/05/14 04:53:20;;;;;;;6.650001;5.1;;;;;;;2.41;79.86426;96334.09;;;;
2019/05/14 04:54:21;;;;;;;6.650001;5.1;;;;;;;2.41;79.86426;96334.09;;;;
2019/05/14 04:55:22;;;;;;;6.650001;5.1;;;;;;;2.41;79.86426;96334.09;;;;
2019/05/14 04:56:23;;;;;;;6.650001;5.1;;;;;;;2.41;79.86426;96334.09;;;;
2019/05/14 04:57:24;;;;;;;6.650001;5.1;;;;;;;2.41;79.86426;96334.09;;;;
2019/05/14 04:58:25;;;;;;;6.650001;5.1;;;;;;;2.41;79.86426;96334.09;;;;
2019/05/14 04:59:26;;;;;;;6.650001;5.1;;;;;;;2.41;79.86426;96334.09;;;;
2019/05/14 05:00:27;;;;;;;6.650001;5.1;;;;;;;2.41;79.86426;96334.09;;;;
2019/05/14 05:01:28;;;;;;;6.650001;5.1;;;;;;;2.41;79.86426;96334.09;;;;
2019/05/14 05:02:29;;;;;;;5.900001;5;;;;;;;2.62;80.10254;96330.92;;;;
2019/05/14 05:03:31;;;;;;;5.900001;5;;;;;;;2.62;80.10254;96330.92;;;;
2019/05/14 05:04:32;;;;;;;5.900001;5;;;;;;;2.62;80.10254;96330.92;;;;
2019/05/14 05:05:33;;;;;;;5.900001;5;;;;;;;2.62;80.10254;96330.92;;;;
2019/05/14 05:06:34;;;;;;;5.900001;5;;;;;;;2.62;80.10254;96330.92;;;;
2019/05/14 05:07:35;;;;;;;5.900001;5;;;;;;;2.62;80.10254;96330.92;;;;
2019/05/14 05:08:36;;;;;;;5.900001;5;;;;;;;2.62;80.10254;96330.92;;;;
2019/05/14 05:09:37;;;;;;;5.900001;5;;;;;;;2.62;80.10254;96330.92;;;;
2019/05/14 05:10:38;;;;;;;5.900001;5;;;;;;;2.62;80.10254;96330.92;;;;
2019/05/14 05:11:39;;;;;;;5.900001;5;;;;;;;2.62;80.10254;96330.92;;;;
2019/05/14 05:12:40;;;;;;;5.900001;5;;;;;;;2.62;80.10254;96330.92;;;;
2019/05/14 05:13:41;;;;;;;5.750001;4.85;;;;;;;3;80.1748;96315.69;;;;
2019/05/14 05:14:42;;;;;;;5.750001;4.85;;;;;;;3;80.1748;96315.69;;;;
2019/05/14 05:15:43;;;;;;;5.750001;4.85;;;;;;;3;80.1748;96315.69;;;;
2019/05/14 05:16:44;;;;;;;5.750001;4.85;;;;;;;3;80.1748;96315.69;;;;
2019/05/14 05:17:45;;;;;;;5.750001;4.85;;;;;;;3;80.1748;96315.69;;;;
2019/05/14 05:18:46;;;;;;;5.750001;4.85;;;;;;;3;80.1748;96315.69;;;;
2019/05/14 05:19:47;;;;;;;5.750001;4.85;;;;;;;3;80.1748;96315.69;;;;
2019/05/14 05:20:48;;;;;;;5.750001;4.85;;;;;;;3;80.1748;96315.69;;;;
2019/05/14 05:21:49;;;;;;;5.750001;4.85;;;;;;;3;80.1748;96315.69;;;;
2019/05/14 05:22:50;;;;;;;5.750001;4.85;;;;;;;3;80.1748;96315.69;;;;
2019/05/14 05:23:52;;;;;;;11.1;5.05;;;;;;;3.57;80.10352;96304.03;;;;
2019/05/14 05:24:53;;;;;;;11.1;5.05;;;;;;;3.57;80.10352;96304.03;;;;
2019/05/14 05:25:54;;;;;;;11.1;5.05;;;;;;;3.57;80.10352;96304.03;;;;
2019/05/14 05:26:55;;;;;;;11.1;5.05;;;;;;;3.57;80.10352;96304.03;;;;
2019/05/14 05:27:56;;;;;;;11.1;5.05;;;;;;;3.57;80.10352;96304.03;;;;
2019/05/14 05:28:57;;;;;;;11.1;5.05;;;;;;;3.57;80.10352;96304.03;;;;
2019/05/14 05:29:58;;;;;;;11.1;5.05;;;;;;;3.57;80.10352;96304.03;;;;
2019/05/14 05:30:59;;;;;;;11.1;5.05;;;;;;;3.57;80.10352;96304.03;;;;
2019/05/14 05:32:00;;;;;;;11.1;5.05;;;;;;;3.57;80.10352;96304.03;;;;
2019/05/14 05:33:01;;;;;;;11.1;5.05;;;;;;;3.57;80.10352;96304.03;;;;
2019/05/14 05:34:02;;;;;;;6.65;4.200001;;;;;;;4.16;79.84375;96306.75;;;;
2019/05/14 05:35:04;;;;;;;6.65;4.200001;;;;;;;4.16;79.84375;96306.75;;;;
2019/05/14 05:36:05;;;;;;;6.65;4.200001;;;;;;;4.16;79.84375;96306.75;;;;
2019/05/14 05:37:06;;;;;;;6.65;4.200001;;;;;;;4.16;79.84375;96306.75;;;;
2019/05/14 05:38:07;;;;;;;6.65;4.200001;;;;;;;4.16;79.84375;96306.75;;;;
2019/05/14 05:39:08;;;;;;;6.65;4.200001;;;;;;;4.16;79.84375;96306.75;;;;
2019/05/14 05:40:09;;;;;;;6.65;4.200001;;;;;;;4.16;79.84375;96306.75;;;;
2019/05/14 05:41:10;;;;;;;6.65;4.200001;;;;;;;4.16;79.84375;96306.75;;;;
2019/05/14 05:42:11;;;;;;;6.65;4.200001;;;;;;;4.16;79.84375;96306.75;;;;
2019/05/14 05:43:12;;;;;;;6.65;4.200001;;;;;;;4.16;79.84375;96306.75;;;;
2019/05/14 05:44:13;;;;;;;6.65;4.200001;;;;;;;4.16;79.84375;96306.75;;;;
2019/05/14 05:45:14;;;;;;;6.500001;4;;;;;;;4.93;79.25879;96304.57;;;;
2019/05/14 05:46:15;;;;;;;6.500001;4;;;;;;;4.93;79.25879;96304.57;;;;
2019/05/14 05:47:16;;;;;;;6.500001;4;;;;;;;4.93;79.25879;96304.57;;;;
2019/05/14 05:48:17;;;;;;;6.500001;4;;;;;;;4.93;79.25879;96304.57;;;;